Oxford, FL (34484)

2:40 AM EDT on October 02, 2014 (GMT -0400)
Villages of parkwood | Change Station
CLOSE
Current Station
Personal Weather Station
Location: Oxford, FL
Elevation: 82 ft
Nearby Weather Stations

Elev 82 ft 28.94 °N, 82.02 °W | Updated 6 minutes ago

Partly Cloudy
Partly Cloudy
73.4 °F
Feels Like 71 °F
N
2.7
Wind Variable Wind from NNE

Today
High -- | Low -- °F
--% Chance of Precip.
Yesterday
High -- | Low -- °F
Precip. -- in
7:21 AM 7:12 PM
First Quarter, 55% visible
Pressure 29.99 in
Visibility 10.0 miles
Clouds Scattered Clouds 6500 ft
Heat Index 71 °F
Dew Point 70 °F
Humidity 90%
Rainfall 0.00 in
Snow Depth Not available.
UV 0 out of 12
Pollen 6.70 out of 12
Air Quality Not available.
Flu Activity Not available.
METAR KLEE 020553Z AUTO 00000KT 10SM SCT065 24/23 A2999 RMK AO2 SLP156 T02440228 10261 20239 58003

More Conditions Fewer Conditions

Pressure 29.99 in
Visibility 10.0 miles
Clouds Scattered Clouds 6500 ft
Heat Index 71 °F
Dew Point 70 °F
Humidity 90%
Rainfall 0.00 in
Snow Depth Not available.
UV 0 out of 12
Pollen 6.70 out of 12
Air Quality Not available.
Flu Activity Not available.
METAR KLEE 020553Z AUTO 00000KT 10SM SCT065 24/23 A2999 RMK AO2 SLP156 T02440228 10261 20239 58003

More Conditions Fewer Conditions

10-Day Weather Forecast

Almanac

Astronomy

Oct. 02, 2014 Rise Set
Actual Time 7:21 AM EDT 7:12 PM EDT
Civil Twilight 6:58 AM EDT 7:36 PM EDT
Nautical Twilight 6:30 AM EDT 8:03 PM EDT
Astronomical Twilight 6:03 AM EDT 8:31 PM EDT
Moon 2:53 PM EDT 1:03 AM EDT
Length of Visible Light 12h 38m
Length of Day
11h 50m
Tomorrow will be 1m 44s shorter.
First Quarter, 55% of the Moon is Illuminated
Today
First Quarter
Oct 8
Full
Oct 15
Last Quarter
Oct 23
New
Oct 30
First Quarter

Today's Extremes

State Highs State Lows

Community

WunderPhotos

Upload Photos

1,758,198 photos uploaded!

WunderBlogs® & News

Nearby

Snow Depth

Station Depth Elevation
No new snow has been reported.

Earthquake Activity

City Distance Mag. Time & Date
No recent earthquake activity has been reported nearby.
Minimum magnitude displayed is 2.5.

Coastal Water Temperatures

Place Temperature
No Stations Reporting

Nearby Weather Stations